YQM weather

Greater Moncton International Airport
Moncton, New Brunswick, Canada

Public forecast

Using degrees Celsius for public forecast. Weather courtesy of forecast.io.

Current aviation weather report (METAR) for Greater Moncton International Airport

Retrieved 2019/12/08 23:00 UTC (54 minutes ago):

CYQM 082300Z 20008KT 15SM SCT220 M07/M11 A3034 RMK CI3 SLP281

Aviation forecast (TAF) for Greater Moncton International Airport

Retrieved 2019/12/08 18:39 UTC (5 hours ago):

TAF CYQM 081738Z 0818/0918 24010G20KT P6SM FEW025 FM082300 22010G20KT P6SM BKN120 FM090200 21015G25KT P6SM SCT030 OVC080 FM090800 23015G25KT P6SM -SHRA OVC020 RMK NXT FCST BY 090000Z